sensor_id;sensor_type;location;lat;lon;timestamp;temperature;humidity
40952;DHT22;26682;51.660;19.338;2022-11-20T00:00:05;-2.70;1.00
40952;DHT22;26682;51.660;19.338;2022-11-20T00:02:12;-2.70;1.00
40952;DHT22;26682;51.660;19.338;2022-11-20T00:04:00;-2.70;1.00
40952;DHT22;26682;51.660;19.338;2022-11-20T00:05:47;-2.70;1.00
40952;DHT22;26682;51.660;19.338;2022-11-20T00:07:34;-2.70;1.00
40952;DHT22;26682;51.660;19.338;2022-11-20T00:09:21;-2.60;1.00
40952;DHT22;26682;51.660;19.338;2022-11-20T00:11:11;-2.60;1.00
40952;DHT22;26682;51.660;19.338;2022-11-20T00:13:03;-2.60;1.00
40952;DHT22;26682;51.660;19.338;2022-11-20T00:14:50;-2.60;1.00
40952;DHT22;26682;51.660;19.338;2022-11-20T00:16:37;-2.60;1.00
40952;DHT22;26682;51.660;19.338;2022-11-20T00:18:25;-2.50;1.00
40952;DHT22;26682;51.660;19.338;2022-11-20T00:20:12;-2.50;1.00
40952;DHT22;26682;51.660;19.338;2022-11-20T00:22:00;-2.50;1.00
40952;DHT22;26682;51.660;19.338;2022-11-20T00:23:48;-2.50;1.00
40952;DHT22;26682;51.660;19.338;2022-11-20T00:25:35;-2.50;1.00
40952;DHT22;26682;51.660;19.338;2022-11-20T00:27:23;-2.50;1.00
40952;DHT22;26682;51.660;19.338;2022-11-20T00:29:10;-2.50;1.00
40952;DHT22;26682;51.660;19.338;2022-11-20T00:31:02;-2.50;1.00
40952;DHT22;26682;51.660;19.338;2022-11-20T00:32:49;-2.50;1.00
40952;DHT22;26682;51.660;19.338;2022-11-20T00:34:36;-2.50;1.00
40952;DHT22;26682;51.660;19.338;2022-11-20T00:36:27;-2.50;1.00
40952;DHT22;26682;51.660;19.338;2022-11-20T00:38:15;-2.50;1.00
40952;DHT22;26682;51.660;19.338;2022-11-20T00:40:02;-2.50;1.00
40952;DHT22;26682;51.660;19.338;2022-11-20T00:41:49;-2.50;1.00
40952;DHT22;26682;51.660;19.338;2022-11-20T00:43:37;-2.50;99.90
40952;DHT22;26682;51.660;19.338;2022-11-20T00:45:24;-2.50;1.00
40952;DHT22;26682;51.660;19.338;2022-11-20T00:47:11;-2.50;99.90
40952;DHT22;26682;51.660;19.338;2022-11-20T00:48:58;-2.50;99.90
40952;DHT22;26682;51.660;19.338;2022-11-20T00:50:45;-2.60;99.90
40952;DHT22;26682;51.660;19.338;2022-11-20T00:52:33;-2.50;99.90
40952;DHT22;26682;51.660;19.338;2022-11-20T00:54:20;-2.60;99.90
40952;DHT22;26682;51.660;19.338;2022-11-20T00:56:10;-2.60;99.90
40952;DHT22;26682;51.660;19.338;2022-11-20T00:57:58;-2.60;99.90
40952;DHT22;26682;51.660;19.338;2022-11-20T00:59:50;-2.60;99.90
40952;DHT22;26682;51.660;19.338;2022-11-20T01:01:37;-2.70;99.90
40952;DHT22;26682;51.660;19.338;2022-11-20T01:03:24;-2.70;99.90
40952;DHT22;26682;51.660;19.338;2022-11-20T01:05:13;-2.70;99.90
40952;DHT22;26682;51.660;19.338;2022-11-20T01:07:00;-2.70;99.90
40952;DHT22;26682;51.660;19.338;2022-11-20T01:08:49;-2.70;99.90
40952;DHT22;26682;51.660;19.338;2022-11-20T01:10:36;-2.70;99.90
40952;DHT22;26682;51.660;19.338;2022-11-20T01:12:23;-2.70;99.90
40952;DHT22;26682;51.660;19.338;2022-11-20T01:14:14;-2.80;99.90
40952;DHT22;26682;51.660;19.338;2022-11-20T01:16:13;-2.80;99.90
40952;DHT22;26682;51.660;19.338;2022-11-20T01:18:00;-2.80;99.90
40952;DHT22;26682;51.660;19.338;2022-11-20T01:19:50;-2.80;99.90
40952;DHT22;26682;51.660;19.338;2022-11-20T01:21:39;-2.80;99.90
40952;DHT22;26682;51.660;19.338;2022-11-20T01:23:30;-2.80;99.90
40952;DHT22;26682;51.660;19.338;2022-11-20T01:25:18;-2.80;99.90
40952;DHT22;26682;51.660;19.338;2022-11-20T01:27:05;-2.80;99.90
40952;DHT22;26682;51.660;19.338;2022-11-20T01:28:53;-2.80;99.90
40952;DHT22;26682;51.660;19.338;2022-11-20T01:30:40;-2.90;99.90
40952;DHT22;26682;51.660;19.338;2022-11-20T01:32:27;-2.90;99.90
40952;DHT22;26682;51.660;19.338;2022-11-20T01:34:17;-2.90;99.90
40952;DHT22;26682;51.660;19.338;2022-11-20T01:36:06;-2.90;99.90
40952;DHT22;26682;51.660;19.338;2022-11-20T01:37:53;-2.90;99.90
40952;DHT22;26682;51.660;19.338;2022-11-20T01:39:40;-3.00;99.90
40952;DHT22;26682;51.660;19.338;2022-11-20T01:41:30;-3.00;99.90
40952;DHT22;26682;51.660;19.338;2022-11-20T01:43:36;-3.00;99.90
40952;DHT22;26682;51.660;19.338;2022-11-20T01:45:59;-3.10;99.90
40952;DHT22;26682;51.660;19.338;2022-11-20T01:47:47;-3.00;99.90
40952;DHT22;26682;51.660;19.338;2022-11-20T01:49:43;-3.00;99.90
40952;DHT22;26682;51.660;19.338;2022-11-20T01:51:38;-3.00;99.90
40952;DHT22;26682;51.660;19.338;2022-11-20T01:53:32;-3.00;1.00
40952;DHT22;26682;51.660;19.338;2022-11-20T01:55:23;-3.00;1.00
40952;DHT22;26682;51.660;19.338;2022-11-20T01:57:12;-3.00;1.00
40952;DHT22;26682;51.660;19.338;2022-11-20T01:59:02;-3.00;1.00
40952;DHT22;26682;51.660;19.338;2022-11-20T02:00:50;-3.00;1.00
40952;DHT22;26682;51.660;19.338;2022-11-20T02:02:40;-3.00;1.00
40952;DHT22;26682;51.660;19.338;2022-11-20T02:04:29;-3.00;1.00
40952;DHT22;26682;51.660;19.338;2022-11-20T02:06:22;-3.00;1.00
40952;DHT22;26682;51.660;19.338;2022-11-20T02:08:11;-3.00;1.00
40952;DHT22;26682;51.660;19.338;2022-11-20T02:09:58;-3.00;1.00
40952;DHT22;26682;51.660;19.338;2022-11-20T02:11:46;-3.00;1.00
40952;DHT22;26682;51.660;19.338;2022-11-20T02:13:33;-2.90;1.00
40952;DHT22;26682;51.660;19.338;2022-11-20T02:15:31;-2.90;1.00
40952;DHT22;26682;51.660;19.338;2022-11-20T02:17:19;-2.90;1.00
40952;DHT22;26682;51.660;19.338;2022-11-20T02:19:13;-2.90;1.00
40952;DHT22;26682;51.660;19.338;2022-11-20T02:21:09;-2.90;1.00
40952;DHT22;26682;51.660;19.338;2022-11-20T02:23:03;-2.90;1.00
40952;DHT22;26682;51.660;19.338;2022-11-20T02:24:51;-2.90;1.00
40952;DHT22;26682;51.660;19.338;2022-11-20T02:28:38;-2.90;1.00
40952;DHT22;26682;51.660;19.338;2022-11-20T02:30:25;-2.90;1.00
40952;DHT22;26682;51.660;19.338;2022-11-20T02:32:28;-2.90;1.00
40952;DHT22;26682;51.660;19.338;2022-11-20T02:34:15;-2.90;1.00
40952;DHT22;26682;51.660;19.338;2022-11-20T02:36:03;-2.90;1.00
40952;DHT22;26682;51.660;19.338;2022-11-20T02:37:54;-2.90;1.00
40952;DHT22;26682;51.660;19.338;2022-11-20T02:39:41;-2.90;1.00
40952;DHT22;26682;51.660;19.338;2022-11-20T02:41:36;-2.90;1.00
40952;DHT22;26682;51.660;19.338;2022-11-20T02:43:24;-2.80;1.00
40952;DHT22;26682;51.660;19.338;2022-11-20T02:45:11;-2.90;1.00
40952;DHT22;26682;51.660;19.338;2022-11-20T02:46:58;-2.90;1.00
40952;DHT22;26682;51.660;19.338;2022-11-20T02:48:46;-2.80;1.00
40952;DHT22;26682;51.660;19.338;2022-11-20T02:50:35;-2.80;1.00
40952;DHT22;26682;51.660;19.338;2022-11-20T02:52:23;-2.80;1.00
40952;DHT22;26682;51.660;19.338;2022-11-20T02:54:10;-2.80;1.00
40952;DHT22;26682;51.660;19.338;2022-11-20T02:55:57;-2.80;1.00
40952;DHT22;26682;51.660;19.338;2022-11-20T02:57:44;-2.80;1.00
40952;DHT22;26682;51.660;19.338;2022-11-20T02:59:32;-2.80;1.00
40952;DHT22;26682;51.660;19.338;2022-11-20T03:01:19;-2.80;1.00
40952;DHT22;26682;51.660;19.338;2022-11-20T03:03:06;-2.80;1.00
40952;DHT22;26682;51.660;19.338;2022-11-20T03:04:53;-2.90;1.00
40952;DHT22;26682;51.660;19.338;2022-11-20T03:06:40;-2.90;1.00
40952;DHT22;26682;51.660;19.338;2022-11-20T03:08:27;-3.00;1.00
40952;DHT22;26682;51.660;19.338;2022-11-20T03:10:15;-3.10;1.00
40952;DHT22;26682;51.660;19.338;2022-11-20T03:12:02;-3.10;1.00
40952;DHT22;26682;51.660;19.338;2022-11-20T03:13:49;-3.20;1.00
40952;DHT22;26682;51.660;19.338;2022-11-20T03:15:37;-3.20;1.00
40952;DHT22;26682;51.660;19.338;2022-11-20T03:17:24;-3.30;1.00
40952;DHT22;26682;51.660;19.338;2022-11-20T03:19:12;-3.40;1.00
40952;DHT22;26682;51.660;19.338;2022-11-20T03:20:59;-3.50;1.00
40952;DHT22;26682;51.660;19.338;2022-11-20T03:22:46;-3.50;1.00
40952;DHT22;26682;51.660;19.338;2022-11-20T03:24:33;-3.60;1.00
40952;DHT22;26682;51.660;19.338;2022-11-20T03:26:23;-3.70;1.00
40952;DHT22;26682;51.660;19.338;2022-11-20T03:28:11;-3.70;1.00
40952;DHT22;26682;51.660;19.338;2022-11-20T03:29:58;-3.80;1.00
40952;DHT22;26682;51.660;19.338;2022-11-20T03:31:45;-3.80;1.00
40952;DHT22;26682;51.660;19.338;2022-11-20T03:33:32;-3.90;11.20
40952;DHT22;26682;51.660;19.338;2022-11-20T03:35:19;-3.90;99.90
40952;DHT22;26682;51.660;19.338;2022-11-20T03:37:07;-3.90;99.90
40952;DHT22;26682;51.660;19.338;2022-11-20T03:38:55;-4.00;99.90
40952;DHT22;26682;51.660;19.338;2022-11-20T03:40:42;-4.00;99.90
40952;DHT22;26682;51.660;19.338;2022-11-20T03:42:30;-4.00;99.90
40952;DHT22;26682;51.660;19.338;2022-11-20T03:44:32;-4.10;99.90
40952;DHT22;26682;51.660;19.338;2022-11-20T03:46:19;-4.20;99.90
40952;DHT22;26682;51.660;19.338;2022-11-20T03:48:06;-4.20;99.90
40952;DHT22;26682;51.660;19.338;2022-11-20T03:49:53;-4.20;99.90
40952;DHT22;26682;51.660;19.338;2022-11-20T03:51:41;-4.30;1.00
40952;DHT22;26682;51.660;19.338;2022-11-20T03:53:28;-4.30;1.00
40952;DHT22;26682;51.660;19.338;2022-11-20T03:55:15;-4.30;1.00
40952;DHT22;26682;51.660;19.338;2022-11-20T03:57:02;-4.30;1.00
40952;DHT22;26682;51.660;19.338;2022-11-20T03:58:50;-4.40;1.00
40952;DHT22;26682;51.660;19.338;2022-11-20T04:00:37;-4.40;1.00
40952;DHT22;26682;51.660;19.338;2022-11-20T04:02:24;-4.40;1.00
40952;DHT22;26682;51.660;19.338;2022-11-20T04:04:11;-4.40;1.00
40952;DHT22;26682;51.660;19.338;2022-11-20T04:06:07;-4.40;1.00
40952;DHT22;26682;51.660;19.338;2022-11-20T04:07:55;-4.50;1.00
40952;DHT22;26682;51.660;19.338;2022-11-20T04:09:42;-4.50;1.00
40952;DHT22;26682;51.660;19.338;2022-11-20T04:11:31;-4.50;1.00
40952;DHT22;26682;51.660;19.338;2022-11-20T04:13:19;-4.50;1.00
40952;DHT22;26682;51.660;19.338;2022-11-20T04:15:06;-4.50;45.40
40952;DHT22;26682;51.660;19.338;2022-11-20T04:16:53;-4.60;50.70
40952;DHT22;26682;51.660;19.338;2022-11-20T04:18:40;-4.60;99.30
40952;DHT22;26682;51.660;19.338;2022-11-20T04:20:28;-4.60;95.70
40952;DHT22;26682;51.660;19.338;2022-11-20T04:22:15;-4.60;56.40
40952;DHT22;26682;51.660;19.338;2022-11-20T04:24:02;-4.70;90.50
40952;DHT22;26682;51.660;19.338;2022-11-20T04:25:49;-4.70;98.00
40952;DHT22;26682;51.660;19.338;2022-11-20T04:27:36;-4.70;99.90
40952;DHT22;26682;51.660;19.338;2022-11-20T04:29:23;-4.70;5.40
40952;DHT22;26682;51.660;19.338;2022-11-20T04:31:21;-4.70;16.80
40952;DHT22;26682;51.660;19.338;2022-11-20T04:33:08;-4.70;33.70
40952;DHT22;26682;51.660;19.338;2022-11-20T04:34:55;-4.80;1.00
40952;DHT22;26682;51.660;19.338;2022-11-20T04:36:43;-4.80;1.00
40952;DHT22;26682;51.660;19.338;2022-11-20T04:38:30;-4.80;10.80
40952;DHT22;26682;51.660;19.338;2022-11-20T04:40:17;-4.80;33.40
40952;DHT22;26682;51.660;19.338;2022-11-20T04:42:04;-4.80;97.50
40952;DHT22;26682;51.660;19.338;2022-11-20T04:44:10;-4.90;99.90
40952;DHT22;26682;51.660;19.338;2022-11-20T04:45:58;-4.90;99.90
40952;DHT22;26682;51.660;19.338;2022-11-20T04:47:45;-4.90;99.90
40952;DHT22;26682;51.660;19.338;2022-11-20T04:49:32;-4.90;99.90
40952;DHT22;26682;51.660;19.338;2022-11-20T04:51:21;-5.00;99.90
40952;DHT22;26682;51.660;19.338;2022-11-20T04:53:08;-4.90;99.90
40952;DHT22;26682;51.660;19.338;2022-11-20T04:54:55;-4.90;99.90
40952;DHT22;26682;51.660;19.338;2022-11-20T04:56:43;-4.90;99.90
40952;DHT22;26682;51.660;19.338;2022-11-20T04:58:31;-4.90;33.40
40952;DHT22;26682;51.660;19.338;2022-11-20T05:00:18;-4.90;4.30
40952;DHT22;26682;51.660;19.338;2022-11-20T05:02:05;-4.90;99.90
40952;DHT22;26682;51.660;19.338;2022-11-20T05:03:53;-4.90;1.00
40952;DHT22;26682;51.660;19.338;2022-11-20T05:05:40;-4.90;1.00
40952;DHT22;26682;51.660;19.338;2022-11-20T05:07:27;-4.90;1.00
40952;DHT22;26682;51.660;19.338;2022-11-20T05:09:14;-4.90;99.90
40952;DHT22;26682;51.660;19.338;2022-11-20T05:11:10;-4.90;99.90
40952;DHT22;26682;51.660;19.338;2022-11-20T05:12:57;-4.90;99.90
40952;DHT22;26682;51.660;19.338;2022-11-20T05:14:45;-4.90;99.90
40952;DHT22;26682;51.660;19.338;2022-11-20T05:16:34;-4.90;99.90
40952;DHT22;26682;51.660;19.338;2022-11-20T05:18:21;-4.90;99.90
40952;DHT22;26682;51.660;19.338;2022-11-20T05:20:10;-5.00;99.90
40952;DHT22;26682;51.660;19.338;2022-11-20T05:21:57;-5.00;99.90
40952;DHT22;26682;51.660;19.338;2022-11-20T05:23:45;-5.10;99.90
40952;DHT22;26682;51.660;19.338;2022-11-20T05:25:33;-5.10;99.90
40952;DHT22;26682;51.660;19.338;2022-11-20T05:27:20;-5.10;99.90
40952;DHT22;26682;51.660;19.338;2022-11-20T05:29:10;-5.20;1.00
40952;DHT22;26682;51.660;19.338;2022-11-20T05:31:08;-5.20;1.00
40952;DHT22;26682;51.660;19.338;2022-11-20T05:32:55;-5.20;1.00
40952;DHT22;26682;51.660;19.338;2022-11-20T05:34:42;-5.20;1.00
40952;DHT22;26682;51.660;19.338;2022-11-20T05:36:30;-5.30;1.00
40952;DHT22;26682;51.660;19.338;2022-11-20T05:38:17;-5.30;99.90
40952;DHT22;26682;51.660;19.338;2022-11-20T05:40:04;-5.30;99.90
40952;DHT22;26682;51.660;19.338;2022-11-20T05:41:52;-5.30;43.90
40952;DHT22;26682;51.660;19.338;2022-11-20T05:43:59;-5.30;13.90
40952;DHT22;26682;51.660;19.338;2022-11-20T05:45:55;-5.40;12.30
40952;DHT22;26682;51.660;19.338;2022-11-20T05:47:42;-5.40;60.80
40952;DHT22;26682;51.660;19.338;2022-11-20T05:49:30;-5.40;99.90
40952;DHT22;26682;51.660;19.338;2022-11-20T05:51:18;-5.40;91.10
40952;DHT22;26682;51.660;19.338;2022-11-20T05:53:06;-5.40;99.70
40952;DHT22;26682;51.660;19.338;2022-11-20T05:54:53;-5.40;99.90
40952;DHT22;26682;51.660;19.338;2022-11-20T05:56:40;-5.40;99.90
40952;DHT22;26682;51.660;19.338;2022-11-20T05:58:28;-5.50;99.90
40952;DHT22;26682;51.660;19.338;2022-11-20T06:00:16;-5.40;99.90
40952;DHT22;26682;51.660;19.338;2022-11-20T06:02:03;-5.50;99.90
40952;DHT22;26682;51.660;19.338;2022-11-20T06:03:53;-5.50;99.90
40952;DHT22;26682;51.660;19.338;2022-11-20T06:05:40;-5.50;1.00
40952;DHT22;26682;51.660;19.338;2022-11-20T06:07:28;-5.40;1.00
40952;DHT22;26682;51.660;19.338;2022-11-20T06:09:15;-5.40;1.00
40952;DHT22;26682;51.660;19.338;2022-11-20T06:11:06;-5.40;10.60
40952;DHT22;26682;51.660;19.338;2022-11-20T06:12:57;-5.40;1.00
40952;DHT22;26682;51.660;19.338;2022-11-20T06:14:45;-5.40;1.00
40952;DHT22;26682;51.660;19.338;2022-11-20T06:16:32;-5.40;1.00
40952;DHT22;26682;51.660;19.338;2022-11-20T06:18:19;-5.40;1.00
40952;DHT22;26682;51.660;19.338;2022-11-20T06:20:07;-5.40;16.10
40952;DHT22;26682;51.660;19.338;2022-11-20T06:21:54;-5.50;24.70
40952;DHT22;26682;51.660;19.338;2022-11-20T06:23:42;-5.40;22.70
40952;DHT22;26682;51.660;19.338;2022-11-20T06:25:29;-5.40;3.30
40952;DHT22;26682;51.660;19.338;2022-11-20T06:27:16;-5.40;24.10
40952;DHT22;26682;51.660;19.338;2022-11-20T06:29:03;-5.50;46.40
40952;DHT22;26682;51.660;19.338;2022-11-20T06:30:51;-5.50;36.70
40952;DHT22;26682;51.660;19.338;2022-11-20T06:32:38;-5.40;99.90
40952;DHT22;26682;51.660;19.338;2022-11-20T06:34:25;-5.40;99.90
40952;DHT22;26682;51.660;19.338;2022-11-20T06:36:14;-5.40;99.90
40952;DHT22;26682;51.660;19.338;2022-11-20T06:38:01;-5.30;99.90
40952;DHT22;26682;51.660;19.338;2022-11-20T06:39:48;-5.30;99.90
40952;DHT22;26682;51.660;19.338;2022-11-20T06:41:36;-5.20;99.90
40952;DHT22;26682;51.660;19.338;2022-11-20T06:43:24;-5.20;99.90
40952;DHT22;26682;51.660;19.338;2022-11-20T06:45:11;-5.20;99.90
40952;DHT22;26682;51.660;19.338;2022-11-20T06:46:58;-5.10;99.90
40952;DHT22;26682;51.660;19.338;2022-11-20T06:48:46;-5.00;99.00
40952;DHT22;26682;51.660;19.338;2022-11-20T06:50:34;-5.00;23.40
40952;DHT22;26682;51.660;19.338;2022-11-20T06:52:21;-5.00;1.00
40952;DHT22;26682;51.660;19.338;2022-11-20T06:54:08;-5.00;1.00
40952;DHT22;26682;51.660;19.338;2022-11-20T06:55:56;-4.90;1.00
40952;DHT22;26682;51.660;19.338;2022-11-20T06:57:44;-4.90;1.00
40952;DHT22;26682;51.660;19.338;2022-11-20T06:59:31;-4.90;1.00
40952;DHT22;26682;51.660;19.338;2022-11-20T07:01:19;-4.90;1.00
40952;DHT22;26682;51.660;19.338;2022-11-20T07:03:07;-4.80;1.00
40952;DHT22;26682;51.660;19.338;2022-11-20T07:04:55;-4.80;99.90
40952;DHT22;26682;51.660;19.338;2022-11-20T07:06:42;-4.70;1.00
40952;DHT22;26682;51.660;19.338;2022-11-20T07:08:29;-4.60;1.00
40952;DHT22;26682;51.660;19.338;2022-11-20T07:10:17;-4.50;1.00
40952;DHT22;26682;51.660;19.338;2022-11-20T07:12:04;-4.40;99.90
40952;DHT22;26682;51.660;19.338;2022-11-20T07:13:53;-4.40;99.90
40952;DHT22;26682;51.660;19.338;2022-11-20T07:15:40;-4.30;99.90
40952;DHT22;26682;51.660;19.338;2022-11-20T07:17:27;-4.20;99.90
40952;DHT22;26682;51.660;19.338;2022-11-20T07:19:15;-4.10;99.90
40952;DHT22;26682;51.660;19.338;2022-11-20T07:21:04;-4.00;40.50
40952;DHT22;26682;51.660;19.338;2022-11-20T07:22:56;-3.80;2.30
40952;DHT22;26682;51.660;19.338;2022-11-20T07:24:43;-3.70;1.00
40952;DHT22;26682;51.660;19.338;2022-11-20T07:26:32;-3.50;99.90
40952;DHT22;26682;51.660;19.338;2022-11-20T07:28:19;-3.40;99.90
40952;DHT22;26682;51.660;19.338;2022-11-20T07:30:06;-3.30;1.00
40952;DHT22;26682;51.660;19.338;2022-11-20T07:31:54;-3.10;99.90
40952;DHT22;26682;51.660;19.338;2022-11-20T07:33:42;-3.00;99.90
40952;DHT22;26682;51.660;19.338;2022-11-20T07:35:30;-2.90;1.00
40952;DHT22;26682;51.660;19.338;2022-11-20T07:37:17;-2.80;1.00
40952;DHT22;26682;51.660;19.338;2022-11-20T07:39:05;-2.80;99.90
40952;DHT22;26682;51.660;19.338;2022-11-20T07:40:58;-2.70;99.90
40952;DHT22;26682;51.660;19.338;2022-11-20T07:42:53;-2.70;99.90
40952;DHT22;26682;51.660;19.338;2022-11-20T07:44:40;-2.60;99.90
40952;DHT22;26682;51.660;19.338;2022-11-20T07:46:27;-2.50;99.90
40952;DHT22;26682;51.660;19.338;2022-11-20T07:48:15;-2.40;99.90
40952;DHT22;26682;51.660;19.338;2022-11-20T07:50:02;-2.40;86.60
40952;DHT22;26682;51.660;19.338;2022-11-20T07:51:50;-2.30;47.90
40952;DHT22;26682;51.660;19.338;2022-11-20T07:53:38;-2.20;1.00
40952;DHT22;26682;51.660;19.338;2022-11-20T07:55:25;-2.20;1.00
40952;DHT22;26682;51.660;19.338;2022-11-20T07:57:12;-2.20;1.00
40952;DHT22;26682;51.660;19.338;2022-11-20T07:59:00;-2.10;1.00
40952;DHT22;26682;51.660;19.338;2022-11-20T08:00:47;-2.00;1.00
40952;DHT22;26682;51.660;19.338;2022-11-20T08:02:37;-2.00;99.90
40952;DHT22;26682;51.660;19.338;2022-11-20T08:04:25;-2.00;99.90
40952;DHT22;26682;51.660;19.338;2022-11-20T08:06:13;-1.90;99.90
40952;DHT22;26682;51.660;19.338;2022-11-20T08:08:01;-1.90;99.90
40952;DHT22;26682;51.660;19.338;2022-11-20T08:09:48;-1.80;99.90
40952;DHT22;26682;51.660;19.338;2022-11-20T08:11:36;-1.80;99.90
40952;DHT22;26682;51.660;19.338;2022-11-20T08:13:42;-1.70;99.90
40952;DHT22;26682;51.660;19.338;2022-11-20T08:15:49;-1.70;99.90
40952;DHT22;26682;51.660;19.338;2022-11-20T08:17:39;-1.70;99.90
40952;DHT22;26682;51.660;19.338;2022-11-20T08:19:27;-1.60;99.90
40952;DHT22;26682;51.660;19.338;2022-11-20T08:21:15;-1.60;99.90
40952;DHT22;26682;51.660;19.338;2022-11-20T08:23:04;-1.60;99.90
40952;DHT22;26682;51.660;19.338;2022-11-20T08:24:52;-1.60;99.90
40952;DHT22;26682;51.660;19.338;2022-11-20T08:26:40;-1.60;1.00
40952;DHT22;26682;51.660;19.338;2022-11-20T08:28:27;-1.60;1.00
40952;DHT22;26682;51.660;19.338;2022-11-20T08:30:15;-1.50;1.00
40952;DHT22;26682;51.660;19.338;2022-11-20T08:32:02;-1.50;1.00
40952;DHT22;26682;51.660;19.338;2022-11-20T08:33:58;-1.40;1.00
40952;DHT22;26682;51.660;19.338;2022-11-20T08:35:45;-1.40;1.00
40952;DHT22;26682;51.660;19.338;2022-11-20T08:37:32;-1.30;1.00
40952;DHT22;26682;51.660;19.338;2022-11-20T08:39:19;-1.30;72.50
40952;DHT22;26682;51.660;19.338;2022-11-20T08:41:07;-1.20;33.20
40952;DHT22;26682;51.660;19.338;2022-11-20T08:43:13;-1.20;46.50
40952;DHT22;26682;51.660;19.338;2022-11-20T08:45:01;-1.10;99.90
40952;DHT22;26682;51.660;19.338;2022-11-20T08:46:48;-1.00;99.90
40952;DHT22;26682;51.660;19.338;2022-11-20T08:48:36;-1.00;99.90
40952;DHT22;26682;51.660;19.338;2022-11-20T08:50:23;-0.90;84.60
40952;DHT22;26682;51.660;19.338;2022-11-20T08:52:10;-0.90;99.90
40952;DHT22;26682;51.660;19.338;2022-11-20T08:53:58;-0.80;99.90
40952;DHT22;26682;51.660;19.338;2022-11-20T08:55:45;-0.70;99.90
40952;DHT22;26682;51.660;19.338;2022-11-20T08:57:33;-0.70;99.90
40952;DHT22;26682;51.660;19.338;2022-11-20T08:59:20;-0.60;99.90
40952;DHT22;26682;51.660;19.338;2022-11-20T09:01:28;-0.60;99.90
40952;DHT22;26682;51.660;19.338;2022-11-20T09:03:16;-0.30;99.90
40952;DHT22;26682;51.660;19.338;2022-11-20T09:05:03;-0.20;99.90
40952;DHT22;26682;51.660;19.338;2022-11-20T09:06:51;-0.20;99.90
40952;DHT22;26682;51.660;19.338;2022-11-20T09:08:39;-0.20;99.90
40952;DHT22;26682;51.660;19.338;2022-11-20T09:10:27;-0.20;99.90
40952;DHT22;26682;51.660;19.338;2022-11-20T09:12:14;-0.30;99.90
40952;DHT22;26682;51.660;19.338;2022-11-20T09:14:01;-0.30;99.90
40952;DHT22;26682;51.660;19.338;2022-11-20T09:15:54;-0.30;1.00
40952;DHT22;26682;51.660;19.338;2022-11-20T09:17:42;-0.20;99.90
40952;DHT22;26682;51.660;19.338;2022-11-20T09:19:29;-0.20;1.00
40952;DHT22;26682;51.660;19.338;2022-11-20T09:21:23;-0.20;99.90
40952;DHT22;26682;51.660;19.338;2022-11-20T09:23:11;-0.20;1.00
40952;DHT22;26682;51.660;19.338;2022-11-20T09:24:58;-0.10;99.90
40952;DHT22;26682;51.660;19.338;2022-11-20T09:26:46;-0.10;99.90
40952;DHT22;26682;51.660;19.338;2022-11-20T09:28:33;-0.10;99.90
40952;DHT22;26682;51.660;19.338;2022-11-20T09:30:20;-0.10;99.90
40952;DHT22;26682;51.660;19.338;2022-11-20T09:32:07;-0.10;99.90
40952;DHT22;26682;51.660;19.338;2022-11-20T09:33:55;-0.10;99.90
40952;DHT22;26682;51.660;19.338;2022-11-20T09:35:43;-0.10;99.90
40952;DHT22;26682;51.660;19.338;2022-11-20T09:37:30;0.00;99.90
40952;DHT22;26682;51.660;19.338;2022-11-20T09:39:22;0.00;99.90
40952;DHT22;26682;51.660;19.338;2022-11-20T09:41:15;0.00;99.90
40952;DHT22;26682;51.660;19.338;2022-11-20T09:52:26;0.20;99.90
40952;DHT22;26682;51.660;19.338;2022-11-20T09:54:17;0.30;99.90
40952;DHT22;26682;51.660;19.338;2022-11-20T09:56:08;0.30;99.90
40952;DHT22;26682;51.660;19.338;2022-11-20T09:57:57;0.40;99.90
40952;DHT22;26682;51.660;19.338;2022-11-20T09:59:50;0.40;99.90
40952;DHT22;26682;51.660;19.338;2022-11-20T10:01:39;0.50;99.90
40952;DHT22;26682;51.660;19.338;2022-11-20T10:03:45;0.50;99.90
40952;DHT22;26682;51.660;19.338;2022-11-20T10:05:45;0.50;99.90
40952;DHT22;26682;51.660;19.338;2022-11-20T10:08:36;0.50;99.90
40952;DHT22;26682;51.660;19.338;2022-11-20T10:09:56;0.50;99.90
40952;DHT22;26682;51.660;19.338;2022-11-20T10:11:46;0.50;99.90
40952;DHT22;26682;51.660;19.338;2022-11-20T10:15:26;0.50;99.90
40952;DHT22;26682;51.660;19.338;2022-11-20T10:25:52;0.60;99.90
40952;DHT22;26682;51.660;19.338;2022-11-20T10:30:09;0.70;99.90
40952;DHT22;26682;51.660;19.338;2022-11-20T10:32:02;0.70;99.90
40952;DHT22;26682;51.660;19.338;2022-11-20T10:33:50;0.70;99.90
40952;DHT22;26682;51.660;19.338;2022-11-20T10:37:59;0.80;99.90
40952;DHT22;26682;51.660;19.338;2022-11-20T10:40:17;0.80;99.90
40952;DHT22;26682;51.660;19.338;2022-11-20T10:42:11;1.00;99.90
40952;DHT22;26682;51.660;19.338;2022-11-20T10:44:05;1.00;99.90
40952;DHT22;26682;51.660;19.338;2022-11-20T10:46:21;1.00;99.90
40952;DHT22;26682;51.660;19.338;2022-11-20T10:50:08;1.00;99.90
40952;DHT22;26682;51.660;19.338;2022-11-20T10:52:32;1.00;99.90
40952;DHT22;26682;51.660;19.338;2022-11-20T10:56:43;1.00;99.90
40952;DHT22;26682;51.660;19.338;2022-11-20T10:58:50;1.00;99.90
40952;DHT22;26682;51.660;19.338;2022-11-20T11:00:39;1.10;99.90
40952;DHT22;26682;51.660;19.338;2022-11-20T11:02:46;1.10;99.90
40952;DHT22;26682;51.660;19.338;2022-11-20T11:04:57;1.00;99.90
40952;DHT22;26682;51.660;19.338;2022-11-20T11:06:48;1.10;99.90
40952;DHT22;26682;51.660;19.338;2022-11-20T11:08:39;1.10;99.90
40952;DHT22;26682;51.660;19.338;2022-11-20T11:10:38;1.20;99.90
40952;DHT22;26682;51.660;19.338;2022-11-20T11:12:28;1.10;99.90
40952;DHT22;26682;51.660;19.338;2022-11-20T11:14:16;1.10;99.90
40952;DHT22;26682;51.660;19.338;2022-11-20T11:16:03;1.10;99.90
40952;DHT22;26682;51.660;19.338;2022-11-20T11:17:51;1.10;99.90
40952;DHT22;26682;51.660;19.338;2022-11-20T11:19:38;1.10;99.90
40952;DHT22;26682;51.660;19.338;2022-11-20T11:21:26;1.20;99.90
40952;DHT22;26682;51.660;19.338;2022-11-20T11:23:36;1.20;99.90
40952;DHT22;26682;51.660;19.338;2022-11-20T11:25:33;1.10;99.90
40952;DHT22;26682;51.660;19.338;2022-11-20T11:27:21;1.10;99.90
40952;DHT22;26682;51.660;19.338;2022-11-20T11:29:17;1.10;99.90
40952;DHT22;26682;51.660;19.338;2022-11-20T11:31:05;1.10;99.90
40952;DHT22;26682;51.660;19.338;2022-11-20T11:33:09;1.20;99.90
40952;DHT22;26682;51.660;19.338;2022-11-20T11:35:06;1.20;99.90
40952;DHT22;26682;51.660;19.338;2022-11-20T11:36:57;1.20;99.90
40952;DHT22;26682;51.660;19.338;2022-11-20T11:38:48;1.20;99.90
40952;DHT22;26682;51.660;19.338;2022-11-20T11:40:39;1.30;99.80
40952;DHT22;26682;51.660;19.338;2022-11-20T11:42:28;1.30;99.90
40952;DHT22;26682;51.660;19.338;2022-11-20T11:44:19;1.40;94.90
40952;DHT22;26682;51.660;19.338;2022-11-20T11:46:33;1.50;96.00
40952;DHT22;26682;51.660;19.338;2022-11-20T11:48:20;1.70;62.30
40952;DHT22;26682;51.660;19.338;2022-11-20T11:50:17;1.70;65.30
40952;DHT22;26682;51.660;19.338;2022-11-20T11:52:15;1.80;49.00
40952;DHT22;26682;51.660;19.338;2022-11-20T11:54:16;1.80;29.40
40952;DHT22;26682;51.660;19.338;2022-11-20T11:56:11;1.70;26.70
40952;DHT22;26682;51.660;19.338;2022-11-20T12:00:21;1.70;1.00
40952;DHT22;26682;51.660;19.338;2022-11-20T12:04:45;1.60;1.00